Startpagina
METAR-TAF:

METAR-TAF

Vliegvelden :

Radom-Sadków

Radom, Polen

breedte: 51-23-21N, lengte: 21-12-49E, hoogte: 186 m

Actueel weer

Dit bericht is 30 minuten geleden gemaakt, om 14:00 UTC
Wind 7 kt uit het westen, variërend tussen het zuidwesten en het westnoordwesten
Temperatuur 8°C
Vochtigheid 76%
Druk 992 hPa
Zicht 10 km of meer
Gebroken wolken op 3100 ft

METAR: EPRA 261400Z 26007KT 230V290 9999 BKN031 08/04 Q0992

Tijdstip: 15:30 (14:30 UTC)

Verwachting

Dit bericht is 3 uur en het 0 minuten geleden gemaakt, om 11:30 UTC
Verwachting geldig van 26 om 12 UTC tot 26 om 21 UTC
Wind 8 kt uit het westzuidwesten
Zicht 10 km of meer
Gebroken wolken op 2400 ft
Kans 40% :
Tijdelijke
van 26 om 14 UTC tot 26 om 20 UTC
Zicht: 6000 m
Verspreide wolken op 1000 ft
Gebroken wolken op 2000 ft, Cumulonimbus.
lichte regenbuien

TAF: EPRA 261130Z 2612/2621 25008KT 9999 BKN024 PROB40 TEMPO 2614/2620 6000 -SHRA SCT010 BKN020CB

Waarnemingen en weersverwachtingen van meer dan 4000 vliegvelden (METAR en TAF).

De beschikbare stations zijn de gele en rode punten op de kaart.

Ga met uw muis naar het station om de naam te zien.

Klik dan om waarnemingen en weersverwachtingen te zien.

kaart wijzigen: klik op de groene knoppen met een zwart kruis om in te zoomen, op de groene knop met een streepje om uit te zoomen of op de groene pijlen voor aangrenzende kaarten.


METAR-TAF: